Observation data for Post on 10/13/2019      Previous  Date       Current Mesonet Observations  Soil Data  Daily Summary Page  Observations in Plain Language
KPT1 130500Z 17004KT 13/M03 A30 RMK A01 T01251029  RH  034%=      5-min Rain = 0
KPT1 130505Z 18004KT 12/M03 A30 RMK A01 T01231029  RH  035%=      5-min Rain = 0
KPT1 130510Z 18005KT 12/M03 A30 RMK A01 T01221028  RH  035%=      5-min Rain = 0
KPT1 130515Z 18006KT 12/M03 A30 RMK A01 T01201027  RH  036%=      5-min Rain = 0
KPT1 130520Z 18005KT 12/M03 A30 RMK A01 T01201027  RH  036%=      5-min Rain = 0
KPT1 130525Z 18006KT 12/M03 A2999 RMK A01 T01201026  RH  036%=      5-min Rain = 0
KPT1 130530Z 19005KT 12/M03 A2999 RMK A01 T01191026  RH  036%=      5-min Rain = 0
KPT1 130535Z 20005KT 12/M03 A2999 RMK A01 T01191026  RH  037%=      5-min Rain = 0
KPT1 130540Z 20006KT 12/M03 A2999 RMK A01 T01211026  RH  036%=      5-min Rain = 0
KPT1 130545Z 19004KT 12/M03 A2999 RMK A01 T01221025  RH  036%=      5-min Rain = 0
KPT1 130550Z 19003KT 12/M03 A2999 RMK A01 T01211025  RH  036%=      5-min Rain = 0
KPT1 130555Z 17003KT 12/M03 A2999 RMK A01 T01191025  RH  037%=      5-min Rain = 0
KPT1 130600Z 18004KT 12/M03 A2998 RMK A01 T01171025  RH  037%=      5-min Rain = 0
KPT1 130605Z 20004KT 12/M02 A2998 RMK A01 T01161024  RH  038%=      5-min Rain = 0
KPT1 130610Z 19004KT 12/M02 A2998 RMK A01 T01161023  RH  038%=      5-min Rain = 0
KPT1 130615Z 20005KT 11/M02 A2998 RMK A01 T01121021  RH  040%=      5-min Rain = 0
KPT1 130620Z 19006KT 11/M02 A2997 RMK A01 T01101020  RH  041%=      5-min Rain = 0
KPT1 130625Z 19007KT 11/M02 A2997 RMK A01 T01121020  RH  040%=      5-min Rain = 0
KPT1 130630Z 19007KT 11/M02 A2996 RMK A01 T01141017  RH  040%=      5-min Rain = 0
KPT1 130635Z 19008KT 12/M02 A2996 RMK A01 T01171016  RH  040%=      5-min Rain = 0
KPT1 130640Z 19007KT 12/M02 A2996 RMK A01 T01181016  RH  040%=      5-min Rain = 0
KPT1 130645Z 20007KT 12/M02 A2996 RMK A01 T01241018  RH  038%=      5-min Rain = 0
KPT1 130650Z 20006KT 13/M02 A2996 RMK A01 T01261020  RH  037%=      5-min Rain = 0
KPT1 130655Z 21007KT 13/M02 A2996 RMK A01 T01301022  RH  035%=      5-min Rain = 0
KPT1 130700Z 21006G13KT 13/M02 A2996 RMK A01 T01331023  RH  034%=      5-min Rain = 0
KPT1 130705Z 20004G9KT 13/M02 A2996 RMK A01 T01341024  RH  034%=      5-min Rain = 0
KPT1 130710Z 08003KT 13/M02 A2997 RMK A01 T01301023  RH  035%=      5-min Rain = 0
KPT1 130715Z 06004KT 12/M02 A2997 RMK A01 T01161019  RH  039%=      5-min Rain = 0
KPT1 130720Z 03002KT 11/M02 A2998 RMK A01 T01131019  RH  040%=      5-min Rain = 0
KPT1 130725Z 05001KT 12/M02 A2998 RMK A01 T01171021  RH  039%=      5-min Rain = 0
KPT1 130730Z 15001KT 12/M02 A2998 RMK A01 T01171021  RH  038%=      5-min Rain = 0
KPT1 130735Z 16001KT 12/M02 A2998 RMK A01 T01211023  RH  037%=      5-min Rain = 0
KPT1 130740Z 15003KT 13/M02 A2998 RMK A01 T01271024  RH  035%=      5-min Rain = 0
KPT1 130745Z 17004KT 13/M03 A2998 RMK A01 T01261025  RH  035%=      5-min Rain = 0
KPT1 130750Z 19005KT 13/M03 A2997 RMK A01 T01291025  RH  035%=      5-min Rain = 0
KPT1 130755Z 20006KT 13/M02 A2997 RMK A01 T01261024  RH  035%=      5-min Rain = 0
KPT1 130800Z 20007KT 13/M02 A2997 RMK A01 T01271024  RH  035%=      5-min Rain = 0
KPT1 130805Z 20005KT 13/M02 A2997 RMK A01 T01271024  RH  035%=      5-min Rain = 0
KPT1 130810Z 20001KT 13/M03 A2998 RMK A01 T01271025  RH  035%=      5-min Rain = 0
KPT1 130815Z 14000KT 12/M03 A2998 RMK A01 T01231025  RH  036%=      5-min Rain = 0
KPT1 130820Z 15001KT 12/M02 A2998 RMK A01 T01191024  RH  037%=      5-min Rain = 0
KPT1 130825Z 17002KT 12/M02 A2997 RMK A01 T01161022  RH  038%=      5-min Rain = 0
KPT1 130830Z 18004KT 12/M02 A2997 RMK A01 T01161023  RH  038%=      5-min Rain = 0
KPT1 130835Z 18004KT 11/M02 A2997 RMK A01 T01131022  RH  039%=      5-min Rain = 0
KPT1 130840Z 19003KT 11/M02 A2997 RMK A01 T01131023  RH  039%=      5-min Rain = 0
KPT1 130845Z 19003KT 12/M02 A2997 RMK A01 T01181024  RH  037%=      5-min Rain = 0
KPT1 130850Z 21003KT 12/M02 A2996 RMK A01 T01191024  RH  037%=      5-min Rain = 0
KPT1 130855Z 23003KT 12/M02 A2996 RMK A01 T01181023  RH  038%=      5-min Rain = 0
KPT1 130900Z 27002KT 12/M02 A2996 RMK A01 T01171023  RH  038%=      5-min Rain = 0
KPT1 130905Z 26000KT 12/M02 A2996 RMK A01 T01151022  RH  039%=      5-min Rain = 0
KPT1 130910Z 33000KT 11/M02 A2996 RMK A01 T01131022  RH  039%=      5-min Rain = 0
KPT1 130915Z 34001KT 11/M02 A2996 RMK A01 T01121021  RH  040%=      5-min Rain = 0
KPT1 130920Z 28003KT 11/M02 A2996 RMK A01 T01081021  RH  041%=      5-min Rain = 0
KPT1 130925Z 26005KT 11/M02 A2996 RMK A01 T01081019  RH  041%=      5-min Rain = 0
KPT1 130930Z 25004KT 11/M02 A2996 RMK A01 T01101020  RH  041%=      5-min Rain = 0
KPT1 130935Z 22003KT 11/M02 A2996 RMK A01 T01071020  RH  041%=      5-min Rain = 0
KPT1 130940Z 21003KT 11/M02 A2996 RMK A01 T01081021  RH  041%=      5-min Rain = 0
KPT1 130945Z 20004KT 11/M02 A2996 RMK A01 T01111023  RH  040%=      5-min Rain = 0
KPT1 130950Z 20004KT 11/M02 A2996 RMK A01 T01111022  RH  040%=      5-min Rain = 0
KPT1 130955Z 21005KT 10/M02 A2996 RMK A01 T01041019  RH  043%=      5-min Rain = 0
KPT1 131000Z 20005KT 10/M02 A2996 RMK A01 T01001018  RH  044%=      5-min Rain = 0
KPT1 131005Z 20005KT 10/M02 A2996 RMK A01 T01011018  RH  044%=      5-min Rain = 0
KPT1 131010Z 20005KT 10/M02 A2996 RMK A01 T01021019  RH  043%=      5-min Rain = 0
KPT1 131015Z 20005KT 10/M02 A2996 RMK A01 T01041020  RH  042%=      5-min Rain = 0
KPT1 131020Z 22003KT 11/M02 A2996 RMK A01 T01071021  RH  041%=      5-min Rain = 0
KPT1 131025Z 24004KT 11/M02 A2996 RMK A01 T01051020  RH  042%=      5-min Rain = 0
KPT1 131030Z 23005KT 11/M02 A2996 RMK A01 T01061021  RH  041%=      5-min Rain = 0
KPT1 131035Z 23004KT 11/M02 A2996 RMK A01 T01071021  RH  041%=      5-min Rain = 0
KPT1 131040Z 23002KT 11/M02 A2996 RMK A01 T01071022  RH  041%=      5-min Rain = 0
KPT1 131045Z 23003KT 11/M02 A2996 RMK A01 T01071021  RH  041%=      5-min Rain = 0
KPT1 131050Z 22004KT 11/M02 A2996 RMK A01 T01061020  RH  041%=      5-min Rain = 0
KPT1 131055Z 22005KT 11/M02 A2996 RMK A01 T01061020  RH  042%=      5-min Rain = 0
KPT1 131100Z 22005KT 11/M02 A2996 RMK A01 T01071019  RH  041%=      5-min Rain = 0
KPT1 131105Z 22005KT 11/M02 A2995 RMK A01 T01071019  RH  042%=      5-min Rain = 0
KPT1 131110Z 21005KT 11/M02 A2996 RMK A01 T01071019  RH  042%=      5-min Rain = 0
KPT1 131115Z 23004KT 11/M02 A2996 RMK A01 T01071019  RH  042%=      5-min Rain = 0
KPT1 131120Z 24002KT 11/M02 A2996 RMK A01 T01081019  RH  041%=      5-min Rain = 0
KPT1 131125Z 25001KT 11/M02 A2996 RMK A01 T01071019  RH  042%=      5-min Rain = 0
KPT1 131130Z 26001KT 11/M02 A2996 RMK A01 T01051019  RH  042%=      5-min Rain = 0
KPT1 131135Z 24001KT 10/M02 A2996 RMK A01 T01041019  RH  043%=      5-min Rain = 0
KPT1 131140Z 23001KT 10/M02 A2996 RMK A01 T01041018  RH  043%=      5-min Rain = 0
KPT1 131145Z 24000KT 10/M02 A2997 RMK A01 T01031018  RH  043%=      5-min Rain = 0
KPT1 131150Z 22002KT 10/M02 A2997 RMK A01 T01021018  RH  044%=      5-min Rain = 0
KPT1 131155Z 23004KT 10/M02 A2996 RMK A01 T01031018  RH  043%=      5-min Rain = 0
KPT1 131200Z 25003KT 11/M02 A2997 RMK A01 T01071018  RH  042%=      5-min Rain = 0
KPT1 131205Z 24003KT 11/M02 A2997 RMK A01 T01081019  RH  042%=      5-min Rain = 0
KPT1 131210Z 26001KT 11/M02 A2997 RMK A01 T01061018  RH  042%=      5-min Rain = 0
KPT1 131215Z 27001KT 11/M02 A2997 RMK A01 T01071018  RH  042%=      5-min Rain = 0
KPT1 131220Z 24003KT 10/M02 A2997 RMK A01 T01041017  RH  043%=      5-min Rain = 0
KPT1 131225Z 30000KT 10/M02 A2997 RMK A01 T01011017  RH  044%=      5-min Rain = 0
KPT1 131230Z 25001KT 10/M02 A2997 RMK A01 T00971016  RH  045%=      5-min Rain = 0
KPT1 131235Z 23005KT 10/M01 A2997 RMK A01 T00981014  RH  046%=      5-min Rain = 0
KPT1 131240Z 23005KT 11/M01 A2997 RMK A01 T01051014  RH  044%=      5-min Rain = 0
KPT1 131245Z 22006KT 10/M01 A2997 RMK A01 T01041013  RH  045%=      5-min Rain = 0
KPT1 131250Z 23002KT 10/M01 A2998 RMK A01 T01041013  RH  045%=      5-min Rain = 0
KPT1 131255Z 20004KT 10/M01 A2998 RMK A01 T00991012  RH  046%=      5-min Rain = 0
KPT1 131300Z 19005KT 10/M01 A2997 RMK A01 T01011011  RH  046%=      5-min Rain = 0
KPT1 131305Z 07002KT 10/M01 A2998 RMK A01 T01001010  RH  047%=      5-min Rain = 0
KPT1 131310Z 17000KT 10/M01 A2998 RMK A01 T00981008  RH  048%=      5-min Rain = 0
KPT1 131315Z 20002KT 10/M01 A2998 RMK A01 T00971006  RH  049%=      5-min Rain = 0
KPT1 131320Z 04003KT 10/M00 A2998 RMK A01 T00961002  RH  051%=      5-min Rain = 0
KPT1 131325Z 17001KT 10/M00 A2998 RMK A01 T00981001  RH  051%=      5-min Rain = 0
KPT1 131330Z 24003KT 10/M00 A2998 RMK A01 T01021003  RH  049%=      5-min Rain = 0
KPT1 131335Z 28001KT 11/M00 A2998 RMK A01 T01081004  RH  046%=      5-min Rain = 0
KPT1 131340Z 26005KT 11/M00 A2998 RMK A01 T01121004  RH  045%=      5-min Rain = 0
KPT1 131345Z 25006KT 12/M00 A2998 RMK A01 T01151004  RH  044%=      5-min Rain = 0
KPT1 131350Z 28002KT 12/M00 A2999 RMK A01 T01211003  RH  043%=      5-min Rain = 0
KPT1 131355Z 34000KT 13/M00 A2999 RMK A01 T01271002  RH  041%=      5-min Rain = 0
KPT1 131400Z 26002KT 13/M00 A2999 RMK A01 T01301002  RH  041%=      5-min Rain = 0
KPT1 131405Z 29002KT 13/M00 A2999 RMK A01 T01321003  RH  040%=      5-min Rain = 0
KPT1 131410Z 27003KT 14/M00 A2999 RMK A01 T01381001  RH  039%=      5-min Rain = 0
KPT1 131415Z 24006KT 14/M00 A2999 RMK A01 T01411003  RH  038%=      5-min Rain = 0
KPT1 131420Z 24006KT 14/M00 A2999 RMK A01 T01421002  RH  038%=      5-min Rain = 0
KPT1 131425Z 22004KT 15/00 A2999 RMK A01 T01470001  RH  037%=      5-min Rain = 0
KPT1 131430Z 23003KT 15/00 A30 RMK A01 T01480000  RH  037%=      5-min Rain = 0
KPT1 131435Z 23004KT 15/00 A30 RMK A01 T01540001  RH  036%=      5-min Rain = 0
KPT1 131440Z 23005KT 16/00 A30 RMK A01 T01570001  RH  035%=      5-min Rain = 0
KPT1 131445Z 22006KT 16/00 A30 RMK A01 T01630002  RH  034%=      5-min Rain = 0
KPT1 131450Z 23007KT 17/00 A30 RMK A01 T01670000  RH  033%=      5-min Rain = 0
KPT1 131455Z 22005KT 18/00 A30 RMK A01 T01750003  RH  032%=      5-min Rain = 0
KPT1 131500Z 20004KT 18/01 A30 RMK A01 T01810006  RH  031%=      5-min Rain = 0
KPT1 131505Z 19004KT 18/01 A30 RMK A01 T01830006  RH  031%=      5-min Rain = 0
KPT1 131510Z 22005KT 19/01 A30 RMK A01 T01870006  RH  030%=      5-min Rain = 0
KPT1 131515Z 23006KT 19/00 A30 RMK A01 T01870004  RH  030%=      5-min Rain = 0
KPT1 131520Z 24006KT 19/01 A30 RMK A01 T01890005  RH  029%=      5-min Rain = 0
KPT1 131525Z 23004KT 19/01 A30 RMK A01 T01930006  RH  029%=      5-min Rain = 0
KPT1 131530Z 22004KT 20/01 A30 RMK A01 T01950006  RH  028%=      5-min Rain = 0
KPT1 131535Z 23005KT 20/01 A30 RMK A01 T01960007  RH  029%=      5-min Rain = 0
KPT1 131540Z 25006KT 20/01 A30 RMK A01 T02030011  RH  028%=      5-min Rain = 0
KPT1 131545Z 24006KT 21/01 A30 RMK A01 T02070011  RH  027%=      5-min Rain = 0
KPT1 131550Z 24007KT 21/01 A30 RMK A01 T02080012  RH  028%=      5-min Rain = 0
KPT1 131555Z 25006KT 21/01 A30 RMK A01 T02120013  RH  027%=      5-min Rain = 0
KPT1 131600Z 24006KT 21/01 A30 RMK A01 T02140013  RH  027%=      5-min Rain = 0
KPT1 131605Z 24007KT 22/01 A30 RMK A01 T02160014  RH  027%=      5-min Rain = 0
KPT1 131610Z 23005KT 22/02 A30 RMK A01 T02200015  RH  026%=      5-min Rain = 0
KPT1 131615Z 24006KT 22/02 A30 RMK A01 T02210015  RH  026%=      5-min Rain = 0
KPT1 131620Z 23005KT 22/02 A30 RMK A01 T02230017  RH  026%=      5-min Rain = 0
KPT1 131625Z 23005KT 23/02 A2999 RMK A01 T02290019  RH  025%=      5-min Rain = 0
KPT1 131630Z 24005KT 23/02 A2999 RMK A01 T02320018  RH  025%=      5-min Rain = 0
KPT1 131635Z 25005KT 23/02 A2999 RMK A01 T02340020  RH  025%=      5-min Rain = 0
KPT1 131640Z 25004G9KT 24/02 A2999 RMK A01 T02410021  RH  024%=      5-min Rain = 0
KPT1 131645Z 25005KT 24/02 A2999 RMK A01 T02370019  RH  024%=      5-min Rain = 0
KPT1 131650Z 25005KT 24/02 A2999 RMK A01 T02400021  RH  024%=      5-min Rain = 0
KPT1 131655Z 25005KT 25/02 A2999 RMK A01 T02460022  RH  023%=      5-min Rain = 0
KPT1 131700Z 26006KT 25/02 A2999 RMK A01 T02470022  RH  023%=      5-min Rain = 0
KPT1 131705Z 23006KT 25/02 A2999 RMK A01 T02460021  RH  023%=      5-min Rain = 0
KPT1 131710Z 24006G11KT 25/02 A2999 RMK A01 T02490022  RH  023%=      5-min Rain = 0
KPT1 131715Z 24007KT 25/02 A2999 RMK A01 T02530023  RH  023%=      5-min Rain = 0
KPT1 131720Z 24003KT 26/02 A2999 RMK A01 T02570024  RH  022%=      5-min Rain = 0
KPT1 131725Z 23005KT 26/03 A2999 RMK A01 T02590025  RH  022%=      5-min Rain = 0
KPT1 131730Z 23004KT 26/03 A2998 RMK A01 T02630026  RH  022%=      5-min Rain = 0
KPT1 131735Z 23005KT 26/03 A2998 RMK A01 T02630025  RH  022%=      5-min Rain = 0
KPT1 131740Z 22004KT 26/02 A2998 RMK A01 T02630024  RH  022%=      5-min Rain = 0
KPT1 131745Z 22005KT 26/02 A2998 RMK A01 T02640024  RH  021%=      5-min Rain = 0
KPT1 131750Z 20004G10KT 27/03 A2998 RMK A01 T02690026  RH  021%=      5-min Rain = 0
KPT1 131755Z 23005G11KT 27/03 A2997 RMK A01 T02730027  RH  021%=      5-min Rain = 0
KPT1 131800Z 23006KT 27/03 A2997 RMK A01 T02720027  RH  021%=      5-min Rain = 0
KPT1 131805Z 22003KT 27/03 A2997 RMK A01 T02710027  RH  021%=      5-min Rain = 0
KPT1 131810Z 21005G10KT 28/03 A2997 RMK A01 T02780025  RH  020%=      5-min Rain = 0
KPT1 131815Z 22002KT 28/02 A2997 RMK A01 T02780024  RH  020%=      5-min Rain = 0
KPT1 131820Z 24004KT 28/03 A2996 RMK A01 T02800026  RH  020%=      5-min Rain = 0
KPT1 131825Z 23005KT 28/02 A2996 RMK A01 T02820023  RH  019%=      5-min Rain = 0
KPT1 131830Z 24003KT 28/02 A2996 RMK A01 T02820022  RH  019%=      5-min Rain = 0
KPT1 131835Z 28005KT 28/02 A2996 RMK A01 T02810018  RH  019%=      5-min Rain = 0
KPT1 131840Z 24003KT 28/02 A2996 RMK A01 T02840020  RH  018%=      5-min Rain = 0
KPT1 131845Z 25005KT 28/02 A2995 RMK A01 T02830020  RH  019%=      5-min Rain = 0
KPT1 131850Z 23002G7KT 28/02 A2995 RMK A01 T02840017  RH  018%=      5-min Rain = 0
KPT1 131855Z 28003KT 29/02 A2995 RMK A01 T02890019  RH  018%=      5-min Rain = 0
KPT1 131900Z 25005KT 29/02 A2995 RMK A01 T02910020  RH  018%=      5-min Rain = 0
KPT1 131905Z 24004KT 29/02 A2994 RMK A01 T02890018  RH  018%=      5-min Rain = 0
KPT1 131910Z 22003KT 29/02 A2994 RMK A01 T02880017  RH  018%=      5-min Rain = 0
KPT1 131915Z 22003KT 29/02 A2994 RMK A01 T02910016  RH  017%=      5-min Rain = 0
KPT1 131920Z 26004KT 29/02 A2994 RMK A01 T02920016  RH  017%=      5-min Rain = 0
KPT1 131925Z 25006KT 29/02 A2993 RMK A01 T02930017  RH  017%=      5-min Rain = 0
KPT1 131930Z 22005G11KT 30/01 A2993 RMK A01 T02960013  RH  016%=      5-min Rain = 0
KPT1 131935Z 26004KT 29/01 A2993 RMK A01 T02940009  RH  016%=      5-min Rain = 0
KPT1 131940Z 25002G7KT 30/01 A2993 RMK A01 T02970010  RH  016%=      5-min Rain = 0
KPT1 131945Z 24005G11KT 30/01 A2992 RMK A01 T03020010  RH  016%=      5-min Rain = 0
KPT1 131950Z 23003KT 30/01 A2992 RMK A01 T03010007  RH  015%=      5-min Rain = 0
KPT1 131955Z 08003KT 30/01 A2992 RMK A01 T03040007  RH  015%=      5-min Rain = 0
KPT1 132000Z 25004KT 31/01 A2992 RMK A01 T03090009  RH  015%=      5-min Rain = 0
KPT1 132005Z 27004G10KT 30/00 A2992 RMK A01 T03030003  RH  015%=      5-min Rain = 0
KPT1 132010Z 22003KT 31/00 A2991 RMK A01 T03060002  RH  014%=      5-min Rain = 0
KPT1 132015Z 18004KT 31/M00 A2991 RMK A01 T03071001  RH  014%=      5-min Rain = 0
KPT1 132020Z 23006KT 31/00 A2991 RMK A01 T03050004  RH  015%=      5-min Rain = 0
KPT1 132025Z 19002KT 30/00 A2991 RMK A01 T03020002  RH  015%=      5-min Rain = 0
KPT1 132030Z 20004KT 31/01 A2991 RMK A01 T03080006  RH  015%=      5-min Rain = 0
KPT1 132035Z 22003KT 31/M00 A2991 RMK A01 T03061001  RH  014%=      5-min Rain = 0
KPT1 132040Z 24004KT 30/M00 A2991 RMK A01 T03031002  RH  014%=      5-min Rain = 0
KPT1 132045Z 24002KT 31/00 A2991 RMK A01 T03070000  RH  014%=      5-min Rain = 0
KPT1 132050Z 02001KT 31/M00 A299 RMK A01 T03081001  RH  014%=      5-min Rain = 0
KPT1 132055Z 23006KT 31/M01 A299 RMK A01 T03121005  RH  013%=      5-min Rain = 0
KPT1 132100Z 25006KT 31/M01 A299 RMK A01 T03081013  RH  013%=      5-min Rain = 0
KPT1 132105Z 22003KT 31/M01 A299 RMK A01 T03091007  RH  013%=      5-min Rain = 0
KPT1 132110Z 26004KT 31/M00 A299 RMK A01 T03091002  RH  014%=      5-min Rain = 0
KPT1 132115Z 23004KT 31/M00 A299 RMK A01 T03101002  RH  014%=      5-min Rain = 0
KPT1 132120Z 26006KT 31/M00 A299 RMK A01 T03111003  RH  013%=      5-min Rain = 0
KPT1 132125Z 25006KT 31/M00 A299 RMK A01 T03091003  RH  013%=      5-min Rain = 0
KPT1 132130Z 25005KT 31/M00 A299 RMK A01 T03081004  RH  014%=      5-min Rain = 0
KPT1 132135Z 29005KT 31/M01 A299 RMK A01 T03081007  RH  013%=      5-min Rain = 0
KPT1 132140Z 23006KT 31/M01 A299 RMK A01 T03101011  RH  013%=      5-min Rain = 0
KPT1 132145Z 22005KT 31/M01 A299 RMK A01 T03091012  RH  013%=      5-min Rain = 0
KPT1 132150Z 24006G11KT 31/M01 A299 RMK A01 T03101011  RH  013%=      5-min Rain = 0
KPT1 132155Z 21008KT 31/M01 A299 RMK A01 T03091008  RH  013%=      5-min Rain = 0
KPT1 132200Z 20006KT 31/M01 A299 RMK A01 T03071007  RH  013%=      5-min Rain = 0
KPT1 132205Z 21005KT 31/M01 A299 RMK A01 T03091009  RH  013%=      5-min Rain = 0
KPT1 132210Z 25005G11KT 31/M01 A299 RMK A01 T03111006  RH  013%=      5-min Rain = 0
KPT1 132215Z 26007G12KT 31/M01 A299 RMK A01 T03051005  RH  014%=      5-min Rain = 0
KPT1 132220Z 22005KT 31/M00 A299 RMK A01 T03071004  RH  014%=      5-min Rain = 0
KPT1 132225Z 21005KT 31/M01 A299 RMK A01 T03061008  RH  013%=      5-min Rain = 0
KPT1 132230Z 20007KT 31/M01 A299 RMK A01 T03061008  RH  013%=      5-min Rain = 0
KPT1 132235Z 21006KT 31/M01 A299 RMK A01 T03061005  RH  014%=      5-min Rain = 0
KPT1 132240Z 22005KT 31/M00 A299 RMK A01 T03071003  RH  014%=      5-min Rain = 0
KPT1 132245Z 20003KT 31/M00 A299 RMK A01 T03061004  RH  014%=      5-min Rain = 0
KPT1 132250Z 20004KT 31/M00 A299 RMK A01 T03061001  RH  014%=      5-min Rain = 0
KPT1 132255Z 19004KT 31/M00 A299 RMK A01 T03051004  RH  014%=      5-min Rain = 0
KPT1 132300Z 20003KT 30/M00 A299 RMK A01 T03041002  RH  014%=      5-min Rain = 0
KPT1 132305Z 19005KT 30/00 A299 RMK A01 T03030003  RH  015%=      5-min Rain = 0
KPT1 132310Z 19007KT 30/M00 A299 RMK A01 T03011003  RH  014%=      5-min Rain = 0
KPT1 132315Z 20008KT 30/M00 A299 RMK A01 T02981004  RH  014%=      5-min Rain = 0
KPT1 132320Z 21008KT 30/M01 A299 RMK A01 T02961005  RH  014%=      5-min Rain = 0
KPT1 132325Z 21007KT 30/M00 A299 RMK A01 T02951004  RH  015%=      5-min Rain = 0
KPT1 132330Z 20008KT 29/M01 A299 RMK A01 T02931008  RH  014%=      5-min Rain = 0
KPT1 132335Z 19005KT 29/M01 A2991 RMK A01 T02911005  RH  015%=      5-min Rain = 0
KPT1 132340Z 19006KT 29/M00 A2991 RMK A01 T02851002  RH  016%=      5-min Rain = 0
KPT1 132345Z 19006KT 28/M00 A2991 RMK A01 T02821002  RH  016%=      5-min Rain = 0
KPT1 132350Z 19006KT 28/00 A2991 RMK A01 T027800-0  RH  017%=      5-min Rain = 0
KPT1 132355Z 19005KT 27/00 A2991 RMK A01 T02740000  RH  017%=      5-min Rain = 0
KPT1 140000Z 18005KT 27/00 A2991 RMK A01 T02690002  RH  018%=      5-min Rain = 0
KPT1 140005Z 18005KT 26/00 A2991 RMK A01 T02640004  RH  018%=      5-min Rain = 0
KPT1 140010Z 19005KT 26/01 A2991 RMK A01 T02600006  RH  019%=      5-min Rain = 0
KPT1 140015Z 20005KT 26/01 A2991 RMK A01 T02560006  RH  020%=      5-min Rain = 0
KPT1 140020Z 20006KT 25/01 A2991 RMK A01 T02520008  RH  020%=      5-min Rain = 0
KPT1 140025Z 19006KT 25/01 A2991 RMK A01 T02510008  RH  020%=      5-min Rain = 0
KPT1 140030Z 19005KT 25/01 A2991 RMK A01 T02490008  RH  021%=      5-min Rain = 0
KPT1 140035Z 19005KT 25/01 A2991 RMK A01 T02460009  RH  021%=      5-min Rain = 0
KPT1 140040Z 19005KT 24/01 A2992 RMK A01 T02440009  RH  022%=      5-min Rain = 0
KPT1 140045Z 19006KT 24/01 A2992 RMK A01 T02430008  RH  022%=      5-min Rain = 0
KPT1 140050Z 19006KT 24/01 A2992 RMK A01 T02420009  RH  022%=      5-min Rain = 0
KPT1 140055Z 19006KT 24/01 A2992 RMK A01 T02410010  RH  022%=      5-min Rain = 0
KPT1 140100Z 19006KT 24/01 A2992 RMK A01 T02400012  RH  023%=      5-min Rain = 0
KPT1 140105Z 19006KT 24/01 A2992 RMK A01 T02390014  RH  023%=      5-min Rain = 0
KPT1 140110Z 19006KT 24/02 A2992 RMK A01 T02380015  RH  023%=      5-min Rain = 0
KPT1 140115Z 20005KT 24/02 A2992 RMK A01 T02380016  RH  024%=      5-min Rain = 0
KPT1 140120Z 20006KT 24/02 A2993 RMK A01 T02370017  RH  024%=      5-min Rain = 0
KPT1 140125Z 20006KT 24/02 A2993 RMK A01 T02380018  RH  024%=      5-min Rain = 0
KPT1 140130Z 20006KT 24/02 A2993 RMK A01 T02400018  RH  024%=      5-min Rain = 0
KPT1 140135Z 20006KT 24/02 A2993 RMK A01 T02410018  RH  024%=      5-min Rain = 0
KPT1 140140Z 21006KT 24/02 A2993 RMK A01 T02390017  RH  024%=      5-min Rain = 0
KPT1 140145Z 21007KT 24/02 A2993 RMK A01 T02400016  RH  023%=      5-min Rain = 0
KPT1 140150Z 21007KT 24/02 A2993 RMK A01 T02380017  RH  024%=      5-min Rain = 0
KPT1 140155Z 21006KT 24/02 A2993 RMK A01 T02350018  RH  024%=      5-min Rain = 0
KPT1 140200Z 21006KT 23/02 A2993 RMK A01 T02340019  RH  025%=      5-min Rain = 0
KPT1 140205Z 21006KT 23/02 A2993 RMK A01 T02320020  RH  025%=      5-min Rain = 0
KPT1 140210Z 22006KT 23/02 A2993 RMK A01 T02310020  RH  025%=      5-min Rain = 0
KPT1 140215Z 21006KT 23/02 A2993 RMK A01 T02320020  RH  025%=      5-min Rain = 0
KPT1 140220Z 22006KT 23/02 A2994 RMK A01 T02300021  RH  026%=      5-min Rain = 0
KPT1 140225Z 22006KT 23/02 A2994 RMK A01 T02310021  RH  026%=      5-min Rain = 0
KPT1 140230Z 22007KT 23/02 A2994 RMK A01 T02310022  RH  026%=      5-min Rain = 0
KPT1 140235Z 21007KT 23/02 A2994 RMK A01 T02310022  RH  026%=      5-min Rain = 0
KPT1 140240Z 22006KT 23/02 A2994 RMK A01 T02300023  RH  026%=      5-min Rain = 0
KPT1 140245Z 22006KT 23/02 A2994 RMK A01 T02300023  RH  026%=      5-min Rain = 0
KPT1 140250Z 22006KT 23/02 A2994 RMK A01 T02290024  RH  026%=      5-min Rain = 0
KPT1 140255Z 21006KT 23/03 A2994 RMK A01 T02280025  RH  027%=      5-min Rain = 0
KPT1 140300Z 21007G12KT 23/03 A2994 RMK A01 T02310025  RH  026%=      5-min Rain = 0
KPT1 140305Z 21008G13KT 24/03 A2994 RMK A01 T02350025  RH  026%=      5-min Rain = 0
KPT1 140310Z 20009G14KT 24/03 A2994 RMK A01 T02400027  RH  025%=      5-min Rain = 0
KPT1 140315Z 21009G14KT 24/03 A2994 RMK A01 T02400028  RH  025%=      5-min Rain = 0
KPT1 140320Z 22009KT 24/03 A2995 RMK A01 T02370029  RH  026%=      5-min Rain = 0
KPT1 140325Z 23009KT 23/03 A2995 RMK A01 T02340030  RH  027%=      5-min Rain = 0
KPT1 140330Z 23009KT 23/03 A2996 RMK A01 T02320031  RH  027%=      5-min Rain = 0
KPT1 140335Z 23008KT 23/03 A2996 RMK A01 T02310032  RH  028%=      5-min Rain = 0
KPT1 140340Z 22008KT 23/03 A2996 RMK A01 T02290033  RH  028%=      5-min Rain = 0
KPT1 140345Z 23007G12KT 23/03 A2996 RMK A01 T02270034  RH  029%=      5-min Rain = 0
KPT1 140350Z 24007KT 23/04 A2996 RMK A01 T02250035  RH  029%=      5-min Rain = 0
KPT1 140355Z 25006KT 22/03 A2996 RMK A01 T02170033  RH  030%=      5-min Rain = 0
KPT1 140400Z 24006KT 22/03 A2996 RMK A01 T02150031  RH  030%=      5-min Rain = 0
KPT1 140405Z 24007KT 22/03 A2996 RMK A01 T02150032  RH  031%=      5-min Rain = 0
KPT1 140410Z 23007KT 22/03 A2996 RMK A01 T02150034  RH  031%=      5-min Rain = 0
KPT1 140415Z 22007KT 22/04 A2996 RMK A01 T02160036  RH  031%=      5-min Rain = 0
KPT1 140420Z 21007KT 22/04 A2996 RMK A01 T02160037  RH  031%=      5-min Rain = 0
KPT1 140425Z 21007KT 22/04 A2996 RMK A01 T02180039  RH  031%=      5-min Rain = 0
KPT1 140430Z 21008KT 22/04 A2996 RMK A01 T02200039  RH  031%=      5-min Rain = 0
KPT1 140435Z 20008KT 22/04 A2996 RMK A01 T02210039  RH  031%=      5-min Rain = 0
KPT1 140440Z 21008KT 22/04 A2996 RMK A01 T02200039  RH  031%=      5-min Rain = 0
KPT1 140445Z 21008KT 22/04 A2995 RMK A01 T02190039  RH  031%=      5-min Rain = 0
KPT1 140450Z 21009KT 22/04 A2995 RMK A01 T02190039  RH  031%=      5-min Rain = 0
KPT1 140455Z 21008KT 22/04 A2996 RMK A01 T02190039  RH  031%=      5-min Rain = 0

Page generated in 0.0275 seconds.